Buoy 54955

sailwx.info

Track history (hours):
 
Tides and Currents Weather Stations Pressure Air Temp Water Temp Dewpoint Dewpoint Depression Visibility Wind Speed Wind Dir Waves Ship Positions

Luruyu54955

Last reported at 2017-Mar-30 00:00 UTC. Time now 2017-Mar-30 02:47 UTC.
Position S 32°37' W 146°41'.

Length 27 m.

Type: Fishing. MMSI: 412330945.

Barometer 1025.6 mb
Water temperature 22.7 ° C

Date/timePositionNaut miles runAvg speedWind from/ knotsBaromVisibWave heightAir tempDewpointWater temp
2017-Mar-30 00:00S 32°37' W 146°41'0 0.0 1025.6 22.7
2017-Mar-29 19:00S 32°37' W 146°41'2 1.6 1026.0 22.7
2017-Mar-29 18:00S 32°38' W 146°40'3 2.7 1025.8 22.7
2017-Mar-29 17:00S 32°40' W 146°38'1 0.8 1025.4 22.7
2017-Mar-29 16:00S 32°41' W 146°38'1 0.8 1024.8 22.7
2017-Mar-29 15:00S 32°41' W 146°38'2 1.2 1024.5 22.7
2017-Mar-29 13:00S 32°44' W 146°37'0 0.0 1024.2 22.7
2017-Mar-29 12:00S 32°44' W 146°37'2 1.9 1024.3 22.7
2017-Mar-29 11:00S 32°46' W 146°38'1 0.3 1024.3 22.7
2017-Mar-29 09:00S 32°46' W 146°38'1 1.2 1024.8 22.8
2017-Mar-29 08:00S 32°47' W 146°39'1 1.2 1025.1 22.8
2017-Mar-29 07:00S 32°46' W 146°38'1 0.5 1025.3 22.8
2017-Mar-29 06:00S 32°46' W 146°37'3 1.3 1025.2 22.8
2017-Mar-29 04:00S 32°46' W 146°34'0 0.0 1024.7 22.9
2017-Mar-29 03:00S 32°46' W 146°34'0 0.0 1024.4 22.9
2017-Mar-29 02:00S 32°46' W 146°34'0 0.0 1024.0 22.9
2017-Mar-29 01:00S 32°46' W 146°34'0 0.0 1023.8 22.9
2017-Mar-29 00:00S 32°46' W 146°34'6 5.6 1023.9 22.9
2017-Mar-28 23:00S 32°49' W 146°28'0 0.0 1024.7 22.9
2017-Mar-28 20:00S 32°49' W 146°28'2 1.5 1025.5 22.8
2017-Mar-28 19:00S 32°49' W 146°26'2 1.9 1025.9 22.8
2017-Mar-28 18:00S 32°50' W 146°26'1 1.3 1026.0 22.8
2017-Mar-28 17:00S 32°52' W 146°26'1 0.6 1025.8 22.8
2017-Mar-28 16:00S 32°52' W 146°26'0 0.0 1025.5 22.9
2017-Mar-28 15:00S 32°52' W 146°26'1 0.8 1025.2 22.9
2017-Mar-28 14:00S 32°53' W 146°26'0 0.0 1025.1 22.9
2017-Mar-28 13:00S 32°53' W 146°26'1 0.8 1025.6 22.9
2017-Mar-28 12:00S 32°53' W 146°26'0 0.0 1025.7 22.9
2017-Mar-28 11:00S 32°53' W 146°26'1 1.0 1025.8 22.9
2017-Mar-28 10:00S 32°53' W 146°25'1 0.2 1026.0 22.9
2017-Mar-28 07:00S 32°53' W 146°25'1 0.8 1026.6 22.9
2017-Mar-28 06:00S 32°52' W 146°25'2 1.6 1027.0 22.9
2017-Mar-28 05:00S 32°51' W 146°23'0 0.0 1026.7 22.9
2017-Mar-28 04:00S 32°51' W 146°23'1 0.5 1026.8 23.0
2017-Mar-28 03:00S 32°51' W 146°23'2 2.0 1026.9 23.0
2017-Mar-28 02:00S 32°51' W 146°20'1 0.5 1026.4 23.0
2017-Mar-28 01:00S 32°51' W 146°21'3 2.6 1026.5 23.0
2017-Mar-28 00:00S 32°52' W 146°18'0 0.0 1026.8 23.0
2017-Mar-27 23:00S 32°52' W 146°18'4 1.2 1027.1 23.1
2017-Mar-27 20:00S 32°53' W 146°14'1 0.6 1028.4 23.1
2017-Mar-27 19:00S 32°54' W 146°14'0 0.0 1028.9 23.1
2017-Mar-27 18:00S 32°54' W 146°14'1 1.2 1029.0 23.1
2017-Mar-27 17:00S 32°55' W 146°13'1 0.6 1028.9 23.1
2017-Mar-27 16:00S 32°55' W 146°13'1 1.2 1028.4 23.1
2017-Mar-27 15:00S 32°56' W 146°12'1 1.0 1027.3 23.1
2017-Mar-27 14:00S 32°56' W 146°13'1 0.8 1027.2 23.2
2017-Mar-27 13:00S 32°56' W 146°13'1 0.8 1027.1 23.2
2017-Mar-27 12:00S 32°57' W 146°13'0 0.0 1027.2 23.2
2017-Mar-27 11:00S 32°57' W 146°13'1 0.8 1027.4 23.2
2017-Mar-27 10:00S 32°56' W 146°13'1 0.3 1027.4 23.3
2017-Mar-27 08:00S 32°56' W 146°13'1 1.2 1027.8 23.3
2017-Mar-27 07:00S 32°56' W 146°12'1 1.2 1028.2 23.3
2017-Mar-27 06:00S 32°55' W 146°11'1 0.8 1027.9 23.3
2017-Mar-27 05:00S 32°56' W 146°11'2 1.5 1026.9 23.4
2017-Mar-27 04:00S 32°56' W 146°10'2 1.5 1025.9 23.4
2017-Mar-27 03:00S 32°56' W 146°08'1 0.8 1025.4 23.4
2017-Mar-27 02:00S 32°56' W 146°07'0 0.0 1024.6 23.4
2017-Mar-27 01:00S 32°56' W 146°07'2 1.9 1023.7 23.4
2017-Mar-27 00:00S 32°58' W 146°05'0 0.0 1023.7 23.4
2017-Mar-26 23:00S 32°58' W 146°05'8 1.6 1023.5 23.4
2017-Mar-26 18:00S 33°05' W 146°02'1 0.8 1021.7 23.4
2017-Mar-26 17:00S 33°06' W 146°03'2 1.8 1020.8 23.4
2017-Mar-26 16:00S 33°08' W 146°03'1 0.8 1019.6 23.4
2017-Mar-26 15:00S 33°07' W 146°04'2 2.3 1018.5 23.4
2017-Mar-26 14:00S 33°09' W 146°05'0 0.0 1017.4 23.5
2017-Mar-26 13:00S 33°09' W 146°05'2 1.6 1017.0 23.5
2017-Mar-26 12:00S 33°10' W 146°07'1 0.5 1016.5 23.5
2017-Mar-26 11:00S 33°10' W 146°07'3 2.6 1016.6 23.5
2017-Mar-26 10:00S 33°10' W 146°10'1 0.1 1016.5 23.5
2017-Mar-26 06:00S 33°10' W 146°10'1 0.8 1016.5 23.6
2017-Mar-26 05:00S 33°10' W 146°10'1 0.6 1016.1 23.7
2017-Mar-26 04:00S 33°10' W 146°10'1 0.8 1015.6 23.7
2017-Mar-26 03:00S 33°11' W 146°09'0 0.0 1015.2 23.7
2017-Mar-26 02:00S 33°11' W 146°09'1 1.3 1015.1 23.8
2017-Mar-26 01:00S 33°12' W 146°10'0 0.0 1015.1 23.8
2017-Mar-26 00:00S 33°12' W 146°10'0 0.0 1015.2 23.7
2017-Mar-25 23:00S 33°12' W 146°10'5 1.3 1015.4 23.7
2017-Mar-25 19:00S 33°17' W 146°12'2 1.9 1016.1 23.5
2017-Mar-25 18:00S 33°18' W 146°14'1 1.2 1016.0 23.5
2017-Mar-25 17:00S 33°17' W 146°15'1 1.0 1015.6 23.5
2017-Mar-25 16:00S 33°17' W 146°16'1 1.2 1015.3 23.5
2017-Mar-25 15:00S 33°18' W 146°17'1 0.6 1014.9 23.5
2017-Mar-25 14:00S 33°17' W 146°17'0 0.0 1014.3 23.5
2017-Mar-25 13:00S 33°17' W 146°17'1 0.6 1014.3 23.5
2017-Mar-25 12:00S 33°17' W 146°17'1 0.6 1015.2 23.5
2017-Mar-25 11:00S 33°17' W 146°17'1 0.4 1015.8 23.5
2017-Mar-25 08:00S 33°17' W 146°16'0 0.0 1017.7 23.5
2017-Mar-25 07:00S 33°17' W 146°16'1 0.5 1018.2 23.5
2017-Mar-25 06:00S 33°17' W 146°16'1 0.5 1018.2 23.6
2017-Mar-25 05:00S 33°17' W 146°15'0 0.0 1017.7 23.6
2017-Mar-25 04:00S 33°17' W 146°15'1 0.5 1017.4 23.6
2017-Mar-25 03:00S 33°17' W 146°14'0 0.0 1017.4 23.6
2017-Mar-25 02:00S 33°17' W 146°14'1 1.2 1017.3 23.6
2017-Mar-25 01:00S 33°17' W 146°13'1 0.5 1017.4 23.6
2017-Mar-25 00:00S 33°17' W 146°14'3 0.4 1017.1 23.6
2017-Mar-24 18:00S 33°20' W 146°13'1 0.6 1018.5 23.4
2017-Mar-24 17:00S 33°20' W 146°13'1 0.5 1017.9 23.4
2017-Mar-24 16:00S 33°20' W 146°13'1 0.5 1017.1 23.4
2017-Mar-24 15:00S 33°20' W 146°13'1 0.5 1016.5 23.4
2017-Mar-24 14:00S 33°20' W 146°13'1 0.5 1016.1 23.4
2017-Mar-24 13:00S 33°20' W 146°13'1 0.4 1015.8 23.5
2017-Mar-24 11:00S 33°21' W 146°13'3 1.0 1015.1 23.5
2017-Mar-24 08:00S 33°23' W 146°10'1 0.6 1014.3 23.6
2017-Mar-24 07:00S 33°23' W 146°10'1 0.7 1014.4 23.6
2017-Mar-24 05:00S 33°25' W 146°10'4 4.3 1012.1 23.6
2017-Mar-24 04:00S 33°29' W 146°11'0 0.0 1011.2 23.7
2017-Mar-24 03:00S 33°29' W 146°11'1 0.5 1010.3 23.7
2017-Mar-24 02:00S 33°29' W 146°11'2 1.0 1009.7 23.7
2017-Mar-24 00:00S 33°30' W 146°13'7 1.3 1008.8 23.7
2017-Mar-23 19:00S 33°31' W 146°21'2 1.6 1009.4 23.6
2017-Mar-23 18:00S 33°31' W 146°23'1 0.6 1009.2 23.6
2017-Mar-23 17:00S 33°31' W 146°23'1 0.6 1009.0 23.6
2017-Mar-23 16:00S 33°30' W 146°23'1 1.0 1008.6 23.6
2017-Mar-23 15:00S 33°30' W 146°24'0 0.0 1008.3 23.6
2017-Mar-23 14:00S 33°30' W 146°24'3 1.3 1008.6 23.6
2017-Mar-23 12:00S 33°29' W 146°27'1 0.6 1010.2 23.6
2017-Mar-23 11:00S 33°30' W 146°27'2 0.8 1011.1 23.6
2017-Mar-23 08:00S 33°29' W 146°29'0 0.0 1014.0 23.6
2017-Mar-23 07:00S 33°29' W 146°29'2 2.1 1014.5 23.6
2017-Mar-23 06:00S 33°31' W 146°31'2 2.5 1014.8 23.6
2017-Mar-23 05:00S 33°28' W 146°31'1 1.0 1014.5 23.6
2017-Mar-23 04:00S 33°28' W 146°30'1 1.2 1014.5 23.6
2017-Mar-23 03:00S 33°28' W 146°31'1 0.5 1014.4 23.7
2017-Mar-23 02:00S 33°28' W 146°31'0 0.0 1014.6 23.7
2017-Mar-23 01:00S 33°28' W 146°31'0 0.0 1014.9 23.8
2017-Mar-23 00:00S 33°28' W 146°31'1 0.3 1015.1 23.7
2017-Mar-22 20:00S 33°27' W 146°29'1 1.2 1017.8 23.6
2017-Mar-22 19:00S 33°28' W 146°29'1 0.8 1017.9 23.6
2017-Mar-22 18:00S 33°29' W 146°30'1 0.6 1018.1 23.5
2017-Mar-22 17:00S 33°29' W 146°30'1 0.8 1017.7 23.5
2017-Mar-22 16:00S 33°29' W 146°29'1 0.6 1017.3 23.5
2017-Mar-22 15:00S 33°29' W 146°29'2 1.5 1016.8 23.5
2017-Mar-22 14:00S 33°29' W 146°31'0 0.0 1016.6 23.5
2017-Mar-22 13:00S 33°29' W 146°31'0 0.0 1016.3 23.5
2017-Mar-22 12:00S 33°29' W 146°31'1 0.1 1016.4 23.5
2017-Mar-22 08:00S 33°30' W 146°31'1 0.5 1017.2 23.6
2017-Mar-22 07:00S 33°30' W 146°31'1 0.6 1017.3 23.6
2017-Mar-22 06:00S 33°31' W 146°31'0 0.0 1017.0 23.6
2017-Mar-22 05:00S 33°31' W 146°31'1 0.5 1016.7 23.6
2017-Mar-22 04:00S 33°31' W 146°31'1 1.2 1016.3 23.6
2017-Mar-22 03:00S 33°31' W 146°30'2 1.6 1015.9 23.6
2017-Mar-22 02:00S 33°32' W 146°29'1 0.5 1015.6 23.6
2017-Mar-22 01:00S 33°32' W 146°29'0 0.0 1015.7 23.6
2017-Mar-22 00:00S 33°32' W 146°29'4 0.8 1015.9 23.6
2017-Mar-21 19:00S 33°37' W 146°29'3 2.6 1016.8 23.6
2017-Mar-21 18:00S 33°37' W 146°32'0 0.0 1016.4 23.6
2017-Mar-21 17:00S 33°37' W 146°32'0 0.5 1016.1 23.6
2017-Mar-21 16:00S 33°37' W 146°32'0 0.0 1015.1 23.6
2017-Mar-21 15:00S 33°37' W 146°32'3 3.1 1014.7 23.6
2017-Mar-21 14:00S 33°38' W 146°35'0 0.0 1013.9 23.6
2017-Mar-21 13:00S 33°38' W 146°35'0 0.5 1014.8 23.6
2017-Mar-21 12:00S 33°38' W 146°36'3 0.4 1014.9 23.5
2017-Mar-21 06:00S 33°37' W 146°39'1 0.8 1016.8 23.6
2017-Mar-21 05:00S 33°38' W 146°40'1 0.8 1016.4 23.6
2017-Mar-21 04:00S 33°37' W 146°40'1 1.3 1016.2 23.6
2017-Mar-21 03:00S 33°38' W 146°40'0 0.5 1015.8 23.6
2017-Mar-21 02:00S 33°38' W 146°39'2 2.1 1015.5 23.6
2017-Mar-21 01:00S 33°39' W 146°41'0 0.0 1015.0 23.7
2017-Mar-21 00:00S 33°39' W 146°41'4 0.7 1015.2 23.7
2017-Mar-20 19:00S 33°42' W 146°44'1 1.5 1016.2 23.6
2017-Mar-20 18:00S 33°42' W 146°46'1 1.2 1016.1 23.6
2017-Mar-20 17:00S 33°43' W 146°47'0 0.5 1015.8 23.6
2017-Mar-20 16:00S 33°43' W 146°47'3 3.0 1015.2 23.6
2017-Mar-20 15:00S 33°43' W 146°51'0 0.0 1014.9 23.6
2017-Mar-20 14:00S 33°43' W 146°51'0 0.0 1015.1 23.6
2017-Mar-20 12:00S 33°43' W 146°51'3 0.9 1015.5 23.6
2017-Mar-20 08:00S 33°41' W 146°55'0 0.0 1017.2 23.7
2017-Mar-20 07:00S 33°41' W 146°55'1 1.0 1017.5 23.6
2017-Mar-20 06:00S 33°41' W 146°56'2 1.6 1017.4 23.7
2017-Mar-20 05:00S 33°41' W 146°58'1 0.6 1017.0 23.7
2017-Mar-20 04:00S 33°41' W 146°58'0 0.5 1016.6 23.7
2017-Mar-20 03:00S 33°41' W 146°57'1 1.5 1016.5 23.7
2017-Mar-20 02:00S 33°41' W 146°59'2 2.0 1016.2 23.7
2017-Mar-20 01:00S 33°41' W 147°01'0 0.0 1016.3 23.7
2017-Mar-20 00:00S 33°41' W 147°01'   1016.6 23.7
Track history (hours):
 
Tides and Currents Weather Stations Pressure Air Temp Water Temp Dewpoint Dewpoint Depression Visibility Wind Speed Wind Dir Waves Ship Positions

Luruyu54955

Last reported at 2017-Mar-30 00:00 UTC. Time now 2017-Mar-30 02:47 UTC.
Position S 32°37' W 146°41'.

Length 27 m.

Type: Fishing. MMSI: 412330945.

Barometer 1025.6 mb
Water temperature 22.7 ° C

Date/timePositionNaut miles runAvg speedWind from/ knotsBaromVisibWave heightAir tempDewpointWater temp
2017-Mar-30 00:00S 32°37' W 146°41'0 0.0 1025.6 22.7
2017-Mar-29 19:00S 32°37' W 146°41'2 1.6 1026.0 22.7
2017-Mar-29 18:00S 32°38' W 146°40'3 2.7 1025.8 22.7
2017-Mar-29 17:00S 32°40' W 146°38'1 0.8 1025.4 22.7
2017-Mar-29 16:00S 32°41' W 146°38'1 0.8 1024.8 22.7
2017-Mar-29 15:00S 32°41' W 146°38'2 1.2 1024.5 22.7
2017-Mar-29 13:00S 32°44' W 146°37'0 0.0 1024.2 22.7
2017-Mar-29 12:00S 32°44' W 146°37'2 1.9 1024.3 22.7
2017-Mar-29 11:00S 32°46' W 146°38'1 0.3 1024.3 22.7
2017-Mar-29 09:00S 32°46' W 146°38'1 1.2 1024.8 22.8
2017-Mar-29 08:00S 32°47' W 146°39'1 1.2 1025.1 22.8
2017-Mar-29 07:00S 32°46' W 146°38'1 0.5 1025.3 22.8
2017-Mar-29 06:00S 32°46' W 146°37'3 1.3 1025.2 22.8
2017-Mar-29 04:00S 32°46' W 146°34'0 0.0 1024.7 22.9
2017-Mar-29 03:00S 32°46' W 146°34'0 0.0 1024.4 22.9
2017-Mar-29 02:00S 32°46' W 146°34'0 0.0 1024.0 22.9
2017-Mar-29 01:00S 32°46' W 146°34'0 0.0 1023.8 22.9
2017-Mar-29 00:00S 32°46' W 146°34'6 5.6 1023.9 22.9
2017-Mar-28 23:00S 32°49' W 146°28'0 0.0 1024.7 22.9
2017-Mar-28 20:00S 32°49' W 146°28'2 1.5 1025.5 22.8
2017-Mar-28 19:00S 32°49' W 146°26'2 1.9 1025.9 22.8
2017-Mar-28 18:00S 32°50' W 146°26'1 1.3 1026.0 22.8
2017-Mar-28 17:00S 32°52' W 146°26'1 0.6 1025.8 22.8
2017-Mar-28 16:00S 32°52' W 146°26'0 0.0 1025.5 22.9
2017-Mar-28 15:00S 32°52' W 146°26'1 0.8 1025.2 22.9
2017-Mar-28 14:00S 32°53' W 146°26'0 0.0 1025.1 22.9
2017-Mar-28 13:00S 32°53' W 146°26'1 0.8 1025.6 22.9
2017-Mar-28 12:00S 32°53' W 146°26'0 0.0 1025.7 22.9
2017-Mar-28 11:00S 32°53' W 146°26'1 1.0 1025.8 22.9
2017-Mar-28 10:00S 32°53' W 146°25'1 0.2 1026.0 22.9
2017-Mar-28 07:00S 32°53' W 146°25'1 0.8 1026.6 22.9
2017-Mar-28 06:00S 32°52' W 146°25'2 1.6 1027.0 22.9
2017-Mar-28 05:00S 32°51' W 146°23'0 0.0 1026.7 22.9
2017-Mar-28 04:00S 32°51' W 146°23'1 0.5 1026.8 23.0
2017-Mar-28 03:00S 32°51' W 146°23'2 2.0 1026.9 23.0
2017-Mar-28 02:00S 32°51' W 146°20'1 0.5 1026.4 23.0
2017-Mar-28 01:00S 32°51' W 146°21'3 2.6 1026.5 23.0
2017-Mar-28 00:00S 32°52' W 146°18'0 0.0 1026.8 23.0
2017-Mar-27 23:00S 32°52' W 146°18'4 1.2 1027.1 23.1
2017-Mar-27 20:00S 32°53' W 146°14'1 0.6 1028.4 23.1
2017-Mar-27 19:00S 32°54' W 146°14'0 0.0 1028.9 23.1
2017-Mar-27 18:00S 32°54' W 146°14'1 1.2 1029.0 23.1
2017-Mar-27 17:00S 32°55' W 146°13'1 0.6 1028.9 23.1
2017-Mar-27 16:00S 32°55' W 146°13'1 1.2 1028.4 23.1
2017-Mar-27 15:00S 32°56' W 146°12'1 1.0 1027.3 23.1
2017-Mar-27 14:00S 32°56' W 146°13'1 0.8 1027.2 23.2
2017-Mar-27 13:00S 32°56' W 146°13'1 0.8 1027.1 23.2
2017-Mar-27 12:00S 32°57' W 146°13'0 0.0 1027.2 23.2
2017-Mar-27 11:00S 32°57' W 146°13'1 0.8 1027.4 23.2
2017-Mar-27 10:00S 32°56' W 146°13'1 0.3 1027.4 23.3
2017-Mar-27 08:00S 32°56' W 146°13'1 1.2 1027.8 23.3
2017-Mar-27 07:00S 32°56' W 146°12'1 1.2 1028.2 23.3
2017-Mar-27 06:00S 32°55' W 146°11'1 0.8 1027.9 23.3
2017-Mar-27 05:00S 32°56' W 146°11'2 1.5 1026.9 23.4
2017-Mar-27 04:00S 32°56' W 146°10'2 1.5 1025.9 23.4
2017-Mar-27 03:00S 32°56' W 146°08'1 0.8 1025.4 23.4
2017-Mar-27 02:00S 32°56' W 146°07'0 0.0 1024.6 23.4
2017-Mar-27 01:00S 32°56' W 146°07'2 1.9 1023.7 23.4
2017-Mar-27 00:00S 32°58' W 146°05'0 0.0 1023.7 23.4
2017-Mar-26 23:00S 32°58' W 146°05'8 1.6 1023.5 23.4
2017-Mar-26 18:00S 33°05' W 146°02'1 0.8 1021.7 23.4
2017-Mar-26 17:00S 33°06' W 146°03'2 1.8 1020.8 23.4
2017-Mar-26 16:00S 33°08' W 146°03'1 0.8 1019.6 23.4
2017-Mar-26 15:00S 33°07' W 146°04'2 2.3 1018.5 23.4
2017-Mar-26 14:00S 33°09' W 146°05'0 0.0 1017.4 23.5
2017-Mar-26 13:00S 33°09' W 146°05'2 1.6 1017.0 23.5
2017-Mar-26 12:00S 33°10' W 146°07'1 0.5 1016.5 23.5
2017-Mar-26 11:00S 33°10' W 146°07'3 2.6 1016.6 23.5
2017-Mar-26 10:00S 33°10' W 146°10'1 0.1 1016.5 23.5
2017-Mar-26 06:00S 33°10' W 146°10'1 0.8 1016.5 23.6
2017-Mar-26 05:00S 33°10' W 146°10'1 0.6 1016.1 23.7
2017-Mar-26 04:00S 33°10' W 146°10'1 0.8 1015.6 23.7
2017-Mar-26 03:00S 33°11' W 146°09'0 0.0 1015.2 23.7
2017-Mar-26 02:00S 33°11' W 146°09'1 1.3 1015.1 23.8
2017-Mar-26 01:00S 33°12' W 146°10'0 0.0 1015.1 23.8
2017-Mar-26 00:00S 33°12' W 146°10'0 0.0 1015.2 23.7
2017-Mar-25 23:00S 33°12' W 146°10'5 1.3 1015.4 23.7
2017-Mar-25 19:00S 33°17' W 146°12'2 1.9 1016.1 23.5
2017-Mar-25 18:00S 33°18' W 146°14'1 1.2 1016.0 23.5
2017-Mar-25 17:00S 33°17' W 146°15'1 1.0 1015.6 23.5
2017-Mar-25 16:00S 33°17' W 146°16'1 1.2 1015.3 23.5
2017-Mar-25 15:00S 33°18' W 146°17'1 0.6 1014.9 23.5
2017-Mar-25 14:00S 33°17' W 146°17'0 0.0 1014.3 23.5
2017-Mar-25 13:00S 33°17' W 146°17'1 0.6 1014.3 23.5
2017-Mar-25 12:00S 33°17' W 146°17'1 0.6 1015.2 23.5
2017-Mar-25 11:00S 33°17' W 146°17'1 0.4 1015.8 23.5
2017-Mar-25 08:00S 33°17' W 146°16'0 0.0 1017.7 23.5
2017-Mar-25 07:00S 33°17' W 146°16'1 0.5 1018.2 23.5
2017-Mar-25 06:00S 33°17' W 146°16'1 0.5 1018.2 23.6
2017-Mar-25 05:00S 33°17' W 146°15'0 0.0 1017.7 23.6
2017-Mar-25 04:00S 33°17' W 146°15'1 0.5 1017.4 23.6
2017-Mar-25 03:00S 33°17' W 146°14'0 0.0 1017.4 23.6
2017-Mar-25 02:00S 33°17' W 146°14'1 1.2 1017.3 23.6
2017-Mar-25 01:00S 33°17' W 146°13'1 0.5 1017.4 23.6
2017-Mar-25 00:00S 33°17' W 146°14'3 0.4 1017.1 23.6
2017-Mar-24 18:00S 33°20' W 146°13'1 0.6 1018.5 23.4
2017-Mar-24 17:00S 33°20' W 146°13'1 0.5 1017.9 23.4
2017-Mar-24 16:00S 33°20' W 146°13'1 0.5 1017.1 23.4
2017-Mar-24 15:00S 33°20' W 146°13'1 0.5 1016.5 23.4
2017-Mar-24 14:00S 33°20' W 146°13'1 0.5 1016.1 23.4
2017-Mar-24 13:00S 33°20' W 146°13'1 0.4 1015.8 23.5
2017-Mar-24 11:00S 33°21' W 146°13'3 1.0 1015.1 23.5
2017-Mar-24 08:00S 33°23' W 146°10'1 0.6 1014.3 23.6
2017-Mar-24 07:00S 33°23' W 146°10'1 0.7 1014.4 23.6
2017-Mar-24 05:00S 33°25' W 146°10'4 4.3 1012.1 23.6
2017-Mar-24 04:00S 33°29' W 146°11'0 0.0 1011.2 23.7
2017-Mar-24 03:00S 33°29' W 146°11'1 0.5 1010.3 23.7
2017-Mar-24 02:00S 33°29' W 146°11'2 1.0 1009.7 23.7
2017-Mar-24 00:00S 33°30' W 146°13'7 1.3 1008.8 23.7
2017-Mar-23 19:00S 33°31' W 146°21'2 1.6 1009.4 23.6
2017-Mar-23 18:00S 33°31' W 146°23'1 0.6 1009.2 23.6
2017-Mar-23 17:00S 33°31' W 146°23'1 0.6 1009.0 23.6
2017-Mar-23 16:00S 33°30' W 146°23'1 1.0 1008.6 23.6
2017-Mar-23 15:00S 33°30' W 146°24'0 0.0 1008.3 23.6
2017-Mar-23 14:00S 33°30' W 146°24'3 1.3 1008.6 23.6
2017-Mar-23 12:00S 33°29' W 146°27'1 0.6 1010.2 23.6
2017-Mar-23 11:00S 33°30' W 146°27'2 0.8 1011.1 23.6
2017-Mar-23 08:00S 33°29' W 146°29'0 0.0 1014.0 23.6
2017-Mar-23 07:00S 33°29' W 146°29'2 2.1 1014.5 23.6
2017-Mar-23 06:00S 33°31' W 146°31'2 2.5 1014.8 23.6
2017-Mar-23 05:00S 33°28' W 146°31'1 1.0 1014.5 23.6
2017-Mar-23 04:00S 33°28' W 146°30'1 1.2 1014.5 23.6
2017-Mar-23 03:00S 33°28' W 146°31'1 0.5 1014.4 23.7
2017-Mar-23 02:00S 33°28' W 146°31'0 0.0 1014.6 23.7
2017-Mar-23 01:00S 33°28' W 146°31'0 0.0 1014.9 23.8
2017-Mar-23 00:00S 33°28' W 146°31'1 0.3 1015.1 23.7
2017-Mar-22 20:00S 33°27' W 146°29'1 1.2 1017.8 23.6
2017-Mar-22 19:00S 33°28' W 146°29'1 0.8 1017.9 23.6
2017-Mar-22 18:00S 33°29' W 146°30'1 0.6 1018.1 23.5
2017-Mar-22 17:00S 33°29' W 146°30'1 0.8 1017.7 23.5
2017-Mar-22 16:00S 33°29' W 146°29'1 0.6 1017.3 23.5
2017-Mar-22 15:00S 33°29' W 146°29'2 1.5 1016.8 23.5
2017-Mar-22 14:00S 33°29' W 146°31'0 0.0 1016.6 23.5
2017-Mar-22 13:00S 33°29' W 146°31'0 0.0 1016.3 23.5
2017-Mar-22 12:00S 33°29' W 146°31'1 0.1 1016.4 23.5
2017-Mar-22 08:00S 33°30' W 146°31'1 0.5 1017.2 23.6
2017-Mar-22 07:00S 33°30' W 146°31'1 0.6 1017.3 23.6
2017-Mar-22 06:00S 33°31' W 146°31'0 0.0 1017.0 23.6
2017-Mar-22 05:00S 33°31' W 146°31'1 0.5 1016.7 23.6
2017-Mar-22 04:00S 33°31' W 146°31'1 1.2 1016.3 23.6
2017-Mar-22 03:00S 33°31' W 146°30'2 1.6 1015.9 23.6
2017-Mar-22 02:00S 33°32' W 146°29'1 0.5 1015.6 23.6
2017-Mar-22 01:00S 33°32' W 146°29'0 0.0 1015.7 23.6
2017-Mar-22 00:00S 33°32' W 146°29'4 0.8 1015.9 23.6
2017-Mar-21 19:00S 33°37' W 146°29'3 2.6 1016.8 23.6
2017-Mar-21 18:00S 33°37' W 146°32'0 0.0 1016.4 23.6
2017-Mar-21 17:00S 33°37' W 146°32'0 0.5 1016.1 23.6
2017-Mar-21 16:00S 33°37' W 146°32'0 0.0 1015.1 23.6
2017-Mar-21 15:00S 33°37' W 146°32'3 3.1 1014.7 23.6
2017-Mar-21 14:00S 33°38' W 146°35'0 0.0 1013.9 23.6
2017-Mar-21 13:00S 33°38' W 146°35'0 0.5 1014.8 23.6
2017-Mar-21 12:00S 33°38' W 146°36'3 0.4 1014.9 23.5
2017-Mar-21 06:00S 33°37' W 146°39'1 0.8 1016.8 23.6
2017-Mar-21 05:00S 33°38' W 146°40'1 0.8 1016.4 23.6
2017-Mar-21 04:00S 33°37' W 146°40'1 1.3 1016.2 23.6
2017-Mar-21 03:00S 33°38' W 146°40'0 0.5 1015.8 23.6
2017-Mar-21 02:00S 33°38' W 146°39'2 2.1 1015.5 23.6
2017-Mar-21 01:00S 33°39' W 146°41'0 0.0 1015.0 23.7
2017-Mar-21 00:00S 33°39' W 146°41'4 0.7 1015.2 23.7
2017-Mar-20 19:00S 33°42' W 146°44'1 1.5 1016.2 23.6
2017-Mar-20 18:00S 33°42' W 146°46'1 1.2 1016.1 23.6
2017-Mar-20 17:00S 33°43' W 146°47'0 0.5 1015.8 23.6
2017-Mar-20 16:00S 33°43' W 146°47'3 3.0 1015.2 23.6
2017-Mar-20 15:00S 33°43' W 146°51'0 0.0 1014.9 23.6
2017-Mar-20 14:00S 33°43' W 146°51'0 0.0 1015.1 23.6
2017-Mar-20 12:00S 33°43' W 146°51'3 0.9 1015.5 23.6
2017-Mar-20 08:00S 33°41' W 146°55'0 0.0 1017.2 23.7
2017-Mar-20 07:00S 33°41' W 146°55'1 1.0 1017.5 23.6
2017-Mar-20 06:00S 33°41' W 146°56'2 1.6 1017.4 23.7
2017-Mar-20 05:00S 33°41' W 146°58'1 0.6 1017.0 23.7
2017-Mar-20 04:00S 33°41' W 146°58'0 0.5 1016.6 23.7
2017-Mar-20 03:00S 33°41' W 146°57'1 1.5 1016.5 23.7
2017-Mar-20 02:00S 33°41' W 146°59'2 2.0 1016.2 23.7
2017-Mar-20 01:00S 33°41' W 147°01'0 0.0 1016.3 23.7
2017-Mar-20 00:00S 33°41' W 147°01'   1016.6 23.7

Dump ship's entire track history